sensor_id;sensor_type;location;lat;lon;timestamp;temperature;humidity
70214;DHT22;60138;55.808;37.078;2023-05-10T00:01:56;7.57;44.00
70214;DHT22;60138;55.808;37.078;2023-05-10T00:04:22;7.56;44.13
70214;DHT22;60138;55.808;37.078;2023-05-10T00:06:47;7.54;44.30
70214;DHT22;60138;55.808;37.078;2023-05-10T00:09:13;7.54;44.14
70214;DHT22;60138;55.808;37.078;2023-05-10T00:11:39;7.52;45.55
70214;DHT22;60138;55.808;37.078;2023-05-10T00:14:05;7.50;44.98
70214;DHT22;60138;55.808;37.078;2023-05-10T00:16:30;7.48;44.31
70214;DHT22;60138;55.808;37.078;2023-05-10T00:18:56;7.48;44.70
70214;DHT22;60138;55.808;37.078;2023-05-10T00:21:22;7.48;44.84
70214;DHT22;60138;55.808;37.078;2023-05-10T00:23:47;7.47;44.90
70214;DHT22;60138;55.808;37.078;2023-05-10T00:26:13;7.46;45.15
70214;DHT22;60138;55.808;37.078;2023-05-10T00:28:44;7.42;44.87
70214;DHT22;60138;55.808;37.078;2023-05-10T00:31:09;7.43;44.91
70214;DHT22;60138;55.808;37.078;2023-05-10T00:33:35;7.43;44.71
70214;DHT22;60138;55.808;37.078;2023-05-10T00:36:02;7.41;44.48
70214;DHT22;60138;55.808;37.078;2023-05-10T00:38:28;7.40;43.97
70214;DHT22;60138;55.808;37.078;2023-05-10T00:40:54;7.39;43.93
70214;DHT22;60138;55.808;37.078;2023-05-10T00:43:26;7.32;44.39
70214;DHT22;60138;55.808;37.078;2023-05-10T00:45:52;7.29;46.25
70214;DHT22;60138;55.808;37.078;2023-05-10T00:48:18;7.22;44.42
70214;DHT22;60138;55.808;37.078;2023-05-10T00:50:45;7.17;43.94
70214;DHT22;60138;55.808;37.078;2023-05-10T00:53:12;7.19;44.25
70214;DHT22;60138;55.808;37.078;2023-05-10T00:55:38;7.20;44.09
70214;DHT22;60138;55.808;37.078;2023-05-10T00:58:04;7.22;43.97
70214;DHT22;60138;55.808;37.078;2023-05-10T01:00:30;7.23;44.36
70214;DHT22;60138;55.808;37.078;2023-05-10T01:02:56;7.26;44.29
70214;DHT22;60138;55.808;37.078;2023-05-10T01:05:22;7.24;44.42
70214;DHT22;60138;55.808;37.078;2023-05-10T01:07:48;7.26;44.47
70214;DHT22;60138;55.808;37.078;2023-05-10T01:10:14;7.27;44.22
70214;DHT22;60138;55.808;37.078;2023-05-10T01:12:41;7.28;44.02
70214;DHT22;60138;55.808;37.078;2023-05-10T01:15:09;7.27;44.32
70214;DHT22;60138;55.808;37.078;2023-05-10T01:17:39;7.26;44.05
70214;DHT22;60138;55.808;37.078;2023-05-10T01:20:07;7.26;44.18
70214;DHT22;60138;55.808;37.078;2023-05-10T01:23:09;7.24;43.84
70214;DHT22;60138;55.808;37.078;2023-05-10T01:34:39;7.22;44.59
70214;DHT22;60138;55.808;37.078;2023-05-10T01:37:10;7.23;44.30
70214;DHT22;60138;55.808;37.078;2023-05-10T01:39:49;7.20;44.80
70214;DHT22;60138;55.808;37.078;2023-05-10T01:42:23;7.20;44.69
70214;DHT22;60138;55.808;37.078;2023-05-10T01:47:29;7.24;44.92
70214;DHT22;60138;55.808;37.078;2023-05-10T01:49:58;7.23;44.56
70214;DHT22;60138;55.808;37.078;2023-05-10T01:52:32;7.17;44.96
70214;DHT22;60138;55.808;37.078;2023-05-10T01:55:07;7.10;45.71
70214;DHT22;60138;55.808;37.078;2023-05-10T01:57:36;7.08;46.38
70214;DHT22;60138;55.808;37.078;2023-05-10T02:00:03;7.07;45.81
70214;DHT22;60138;55.808;37.078;2023-05-10T02:02:45;7.09;45.76
70214;DHT22;60138;55.808;37.078;2023-05-10T02:05:13;7.11;46.44
70214;DHT22;60138;55.808;37.078;2023-05-10T02:07:40;7.15;46.18
70214;DHT22;60138;55.808;37.078;2023-05-10T02:10:08;7.14;47.94
70214;DHT22;60138;55.808;37.078;2023-05-10T02:12:46;7.14;47.44
70214;DHT22;60138;55.808;37.078;2023-05-10T02:15:19;7.12;47.34
70214;DHT22;60138;55.808;37.078;2023-05-10T02:17:46;7.13;47.07
70214;DHT22;60138;55.808;37.078;2023-05-10T02:20:13;7.12;47.86
70214;DHT22;60138;55.808;37.078;2023-05-10T02:22:41;7.10;47.45
70214;DHT22;60138;55.808;37.078;2023-05-10T02:25:09;7.10;47.49
70214;DHT22;60138;55.808;37.078;2023-05-10T02:27:37;7.13;47.43
70214;DHT22;60138;55.808;37.078;2023-05-10T02:30:05;7.13;48.14
70214;DHT22;60138;55.808;37.078;2023-05-10T02:32:32;7.15;47.50
70214;DHT22;60138;55.808;37.078;2023-05-10T02:35:01;7.16;47.50
70214;DHT22;60138;55.808;37.078;2023-05-10T02:37:31;7.17;47.51
70214;DHT22;60138;55.808;37.078;2023-05-10T02:39:59;7.15;47.54
70214;DHT22;60138;55.808;37.078;2023-05-10T02:42:29;7.17;47.82
70214;DHT22;60138;55.808;37.078;2023-05-10T02:45:01;7.17;47.83
70214;DHT22;60138;55.808;37.078;2023-05-10T02:47:33;7.24;47.80
70214;DHT22;60138;55.808;37.078;2023-05-10T02:49:59;7.28;47.79
70214;DHT22;60138;55.808;37.078;2023-05-10T02:52:28;7.31;47.66
70214;DHT22;60138;55.808;37.078;2023-05-10T02:54:58;7.34;47.41
70214;DHT22;60138;55.808;37.078;2023-05-10T02:57:32;7.38;47.70
70214;DHT22;60138;55.808;37.078;2023-05-10T02:59:59;7.38;46.78
70214;DHT22;60138;55.808;37.078;2023-05-10T03:02:25;7.42;46.93
70214;DHT22;60138;55.808;37.078;2023-05-10T03:04:50;7.47;47.01
70214;DHT22;60138;55.808;37.078;2023-05-10T03:07:17;7.52;47.48
70214;DHT22;60138;55.808;37.078;2023-05-10T03:09:43;7.55;47.54
70214;DHT22;60138;55.808;37.078;2023-05-10T03:12:19;7.54;48.58
70214;DHT22;60138;55.808;37.078;2023-05-10T03:20:10;7.68;46.96
70214;DHT22;60138;55.808;37.078;2023-05-10T03:22:39;7.73;47.25
70214;DHT22;60138;55.808;37.078;2023-05-10T03:25:07;7.74;47.29
70214;DHT22;60138;55.808;37.078;2023-05-10T03:27:39;7.84;47.08
70214;DHT22;60138;55.808;37.078;2023-05-10T03:30:08;7.93;47.53
70214;DHT22;60138;55.808;37.078;2023-05-10T03:32:36;7.96;47.50
70214;DHT22;60138;55.808;37.078;2023-05-10T03:35:12;8.03;46.89
70214;DHT22;60138;55.808;37.078;2023-05-10T03:37:38;8.11;47.12
70214;DHT22;60138;55.808;37.078;2023-05-10T03:40:05;8.17;46.94
70214;DHT22;60138;55.808;37.078;2023-05-10T03:42:33;8.26;46.92
70214;DHT22;60138;55.808;37.078;2023-05-10T03:44:59;8.33;47.16
70214;DHT22;60138;55.808;37.078;2023-05-10T03:47:25;8.32;48.16
70214;DHT22;60138;55.808;37.078;2023-05-10T03:49:51;8.37;47.56
70214;DHT22;60138;55.808;37.078;2023-05-10T03:52:17;8.43;47.88
70214;DHT22;60138;55.808;37.078;2023-05-10T03:54:43;8.47;46.97
70214;DHT22;60138;55.808;37.078;2023-05-10T03:57:08;8.55;47.09
70214;DHT22;60138;55.808;37.078;2023-05-10T03:59:34;8.59;47.91
70214;DHT22;60138;55.808;37.078;2023-05-10T04:02:00;8.64;46.51
70214;DHT22;60138;55.808;37.078;2023-05-10T04:04:25;8.65;46.93
70214;DHT22;60138;55.808;37.078;2023-05-10T04:06:51;8.71;46.79
70214;DHT22;60138;55.808;37.078;2023-05-10T04:09:18;8.77;46.25
70214;DHT22;60138;55.808;37.078;2023-05-10T04:11:44;8.86;45.81
70214;DHT22;60138;55.808;37.078;2023-05-10T04:14:09;8.87;46.53
70214;DHT22;60138;55.808;37.078;2023-05-10T04:16:35;8.92;46.80
70214;DHT22;60138;55.808;37.078;2023-05-10T04:19:01;9.00;46.19
70214;DHT22;60138;55.808;37.078;2023-05-10T04:21:26;9.09;45.46
70214;DHT22;60138;55.808;37.078;2023-05-10T04:23:52;9.20;45.16
70214;DHT22;60138;55.808;37.078;2023-05-10T04:26:18;9.31;44.83
70214;DHT22;60138;55.808;37.078;2023-05-10T04:28:43;9.46;44.68
70214;DHT22;60138;55.808;37.078;2023-05-10T04:31:09;9.53;44.43
70214;DHT22;60138;55.808;37.078;2023-05-10T04:33:36;9.62;44.67
70214;DHT22;60138;55.808;37.078;2023-05-10T04:36:02;9.70;43.94
70214;DHT22;60138;55.808;37.078;2023-05-10T04:38:28;9.79;44.20
70214;DHT22;60138;55.808;37.078;2023-05-10T04:40:54;9.89;43.93
70214;DHT22;60138;55.808;37.078;2023-05-10T04:43:20;10.01;43.71
70214;DHT22;60138;55.808;37.078;2023-05-10T04:45:46;10.18;43.06
70214;DHT22;60138;55.808;37.078;2023-05-10T04:48:11;10.25;42.98
70214;DHT22;60138;55.808;37.078;2023-05-10T04:50:37;10.36;43.36
70214;DHT22;60138;55.808;37.078;2023-05-10T04:53:04;10.46;43.19
70214;DHT22;60138;55.808;37.078;2023-05-10T04:55:29;10.59;42.64
70214;DHT22;60138;55.808;37.078;2023-05-10T04:57:55;10.73;42.35
70214;DHT22;60138;55.808;37.078;2023-05-10T05:00:21;10.85;42.58
70214;DHT22;60138;55.808;37.078;2023-05-10T05:02:47;10.96;42.59
70214;DHT22;60138;55.808;37.078;2023-05-10T05:05:12;11.10;42.45
70214;DHT22;60138;55.808;37.078;2023-05-10T05:07:38;11.23;41.76
70214;DHT22;60138;55.808;37.078;2023-05-10T05:10:08;11.28;41.82
70214;DHT22;60138;55.808;37.078;2023-05-10T05:12:34;11.40;41.61
70214;DHT22;60138;55.808;37.078;2023-05-10T05:15:02;11.48;40.96
70214;DHT22;60138;55.808;37.078;2023-05-10T05:17:30;11.58;40.94
70214;DHT22;60138;55.808;37.078;2023-05-10T05:19:56;11.69;40.30
70214;DHT22;60138;55.808;37.078;2023-05-10T05:22:21;11.81;40.75
70214;DHT22;60138;55.808;37.078;2023-05-10T05:24:47;11.94;40.23
70214;DHT22;60138;55.808;37.078;2023-05-10T05:27:12;12.01;40.07
70214;DHT22;60138;55.808;37.078;2023-05-10T05:29:38;12.08;41.03
70214;DHT22;60138;55.808;37.078;2023-05-10T05:32:04;12.17;40.01
70214;DHT22;60138;55.808;37.078;2023-05-10T05:34:30;12.31;39.38
70214;DHT22;60138;55.808;37.078;2023-05-10T05:36:55;12.47;38.95
70214;DHT22;60138;55.808;37.078;2023-05-10T05:39:21;12.57;38.69
70214;DHT22;60138;55.808;37.078;2023-05-10T05:41:47;12.64;37.96
70214;DHT22;60138;55.808;37.078;2023-05-10T05:44:12;12.75;38.22
70214;DHT22;60138;55.808;37.078;2023-05-10T05:46:38;12.82;37.77
70214;DHT22;60138;55.808;37.078;2023-05-10T05:49:04;12.85;37.37
70214;DHT22;60138;55.808;37.078;2023-05-10T05:51:30;12.88;35.81
70214;DHT22;60138;55.808;37.078;2023-05-10T05:53:56;12.93;37.45
70214;DHT22;60138;55.808;37.078;2023-05-10T05:56:22;13.11;37.28
70214;DHT22;60138;55.808;37.078;2023-05-10T05:58:48;13.27;35.77
70214;DHT22;60138;55.808;37.078;2023-05-10T06:01:13;13.40;37.04
70214;DHT22;60138;55.808;37.078;2023-05-10T06:03:39;13.56;36.35
70214;DHT22;60138;55.808;37.078;2023-05-10T06:06:05;13.63;36.60
70214;DHT22;60138;55.808;37.078;2023-05-10T06:08:30;13.77;36.63
70214;DHT22;60138;55.808;37.078;2023-05-10T06:10:56;13.97;36.47
70214;DHT22;60138;55.808;37.078;2023-05-10T06:13:21;14.12;35.34
70214;DHT22;60138;55.808;37.078;2023-05-10T06:15:47;14.14;35.29
70214;DHT22;60138;55.808;37.078;2023-05-10T06:18:13;14.27;34.75
70214;DHT22;60138;55.808;37.078;2023-05-10T06:20:38;14.30;34.07
70214;DHT22;60138;55.808;37.078;2023-05-10T06:23:06;14.30;33.28
70214;DHT22;60138;55.808;37.078;2023-05-10T06:25:31;14.37;34.92
70214;DHT22;60138;55.808;37.078;2023-05-10T06:27:57;14.55;34.11
70214;DHT22;60138;55.808;37.078;2023-05-10T06:30:24;14.74;33.79
70214;DHT22;60138;55.808;37.078;2023-05-10T06:32:50;14.81;33.61
70214;DHT22;60138;55.808;37.078;2023-05-10T06:35:15;14.87;33.51
70214;DHT22;60138;55.808;37.078;2023-05-10T06:37:41;15.01;33.77
70214;DHT22;60138;55.808;37.078;2023-05-10T06:40:07;15.22;34.16
70214;DHT22;60138;55.808;37.078;2023-05-10T06:42:33;15.43;31.73
70214;DHT22;60138;55.808;37.078;2023-05-10T06:44:59;15.44;31.83
70214;DHT22;60138;55.808;37.078;2023-05-10T06:47:24;15.46;33.37
70214;DHT22;60138;55.808;37.078;2023-05-10T06:49:50;15.51;29.97
70214;DHT22;60138;55.808;37.078;2023-05-10T06:52:16;15.55;31.32
70214;DHT22;60138;55.808;37.078;2023-05-10T06:54:41;15.66;31.57
70214;DHT22;60138;55.808;37.078;2023-05-10T06:57:07;15.73;31.45
70214;DHT22;60138;55.808;37.078;2023-05-10T06:59:33;15.77;31.81
70214;DHT22;60138;55.808;37.078;2023-05-10T07:01:58;15.80;31.04
70214;DHT22;60138;55.808;37.078;2023-05-10T07:04:24;15.74;26.84
70214;DHT22;60138;55.808;37.078;2023-05-10T07:06:50;15.54;28.32
70214;DHT22;60138;55.808;37.078;2023-05-10T07:09:15;15.31;30.00
70214;DHT22;60138;55.808;37.078;2023-05-10T07:11:41;15.02;30.35
70214;DHT22;60138;55.808;37.078;2023-05-10T07:14:07;14.74;28.89
70214;DHT22;60138;55.808;37.078;2023-05-10T07:16:33;14.48;30.25
70214;DHT22;60138;55.808;37.078;2023-05-10T07:18:58;14.27;29.88
70214;DHT22;60138;55.808;37.078;2023-05-10T07:21:24;14.08;30.45
70214;DHT22;60138;55.808;37.078;2023-05-10T07:23:50;13.92;30.08
70214;DHT22;60138;55.808;37.078;2023-05-10T07:26:15;13.80;30.79
70214;DHT22;60138;55.808;37.078;2023-05-10T07:28:41;13.74;31.19
70214;DHT22;60138;55.808;37.078;2023-05-10T07:31:07;13.68;29.08
70214;DHT22;60138;55.808;37.078;2023-05-10T07:33:33;13.66;31.14
70214;DHT22;60138;55.808;37.078;2023-05-10T07:35:59;13.67;31.06
70214;DHT22;60138;55.808;37.078;2023-05-10T07:38:24;13.74;31.63
70214;DHT22;60138;55.808;37.078;2023-05-10T07:40:50;13.75;31.77
70214;DHT22;60138;55.808;37.078;2023-05-10T07:43:16;13.74;29.54
70214;DHT22;60138;55.808;37.078;2023-05-10T07:45:41;13.75;30.38
70214;DHT22;60138;55.808;37.078;2023-05-10T07:48:07;13.76;31.09
70214;DHT22;60138;55.808;37.078;2023-05-10T07:50:32;13.78;30.88
70214;DHT22;60138;55.808;37.078;2023-05-10T07:52:58;13.90;31.15
70214;DHT22;60138;55.808;37.078;2023-05-10T07:55:24;13.98;30.25
70214;DHT22;60138;55.808;37.078;2023-05-10T07:57:49;14.00;30.80
70214;DHT22;60138;55.808;37.078;2023-05-10T08:00:18;14.04;28.61
70214;DHT22;60138;55.808;37.078;2023-05-10T08:02:44;14.11;29.97
70214;DHT22;60138;55.808;37.078;2023-05-10T08:05:10;14.17;26.93
70214;DHT22;60138;55.808;37.078;2023-05-10T08:07:35;14.25;26.51
70214;DHT22;60138;55.808;37.078;2023-05-10T08:10:02;14.44;29.82
70214;DHT22;60138;55.808;37.078;2023-05-10T08:12:31;14.69;30.16
70214;DHT22;60138;55.808;37.078;2023-05-10T08:14:57;14.85;28.25
70214;DHT22;60138;55.808;37.078;2023-05-10T08:17:22;15.07;26.57
70214;DHT22;60138;55.808;37.078;2023-05-10T08:19:48;15.23;24.73
70214;DHT22;60138;55.808;37.078;2023-05-10T08:22:14;15.53;27.28
70214;DHT22;60138;55.808;37.078;2023-05-10T08:24:39;15.78;27.74
70214;DHT22;60138;55.808;37.078;2023-05-10T08:27:05;16.17;30.12
70214;DHT22;60138;55.808;37.078;2023-05-10T08:29:31;16.60;28.58
70214;DHT22;60138;55.808;37.078;2023-05-10T08:31:57;16.95;27.63
70214;DHT22;60138;55.808;37.078;2023-05-10T08:34:22;17.21;24.04
70214;DHT22;60138;55.808;37.078;2023-05-10T08:36:48;17.36;25.86
70214;DHT22;60138;55.808;37.078;2023-05-10T08:39:14;17.52;27.50
70214;DHT22;60138;55.808;37.078;2023-05-10T08:41:39;17.58;22.24
70214;DHT22;60138;55.808;37.078;2023-05-10T08:44:09;17.69;26.49
70214;DHT22;60138;55.808;37.078;2023-05-10T08:46:36;17.73;24.01
70214;DHT22;60138;55.808;37.078;2023-05-10T08:49:03;17.87;24.76
70214;DHT22;60138;55.808;37.078;2023-05-10T08:51:33;17.97;24.68
70214;DHT22;60138;55.808;37.078;2023-05-10T08:54:01;18.19;25.44
70214;DHT22;60138;55.808;37.078;2023-05-10T08:56:28;18.27;20.88
70214;DHT22;60138;55.808;37.078;2023-05-10T08:58:53;18.32;24.65
70214;DHT22;60138;55.808;37.078;2023-05-10T09:01:20;18.47;23.80
70214;DHT22;60138;55.808;37.078;2023-05-10T09:03:46;18.59;24.55
70214;DHT22;60138;55.808;37.078;2023-05-10T09:06:13;18.59;24.43
70214;DHT22;60138;55.808;37.078;2023-05-10T09:08:40;18.54;25.95
70214;DHT22;60138;55.808;37.078;2023-05-10T09:11:06;18.33;22.72
70214;DHT22;60138;55.808;37.078;2023-05-10T09:13:33;18.08;24.56
70214;DHT22;60138;55.808;37.078;2023-05-10T09:15:59;18.10;24.83
70214;DHT22;60138;55.808;37.078;2023-05-10T09:18:26;18.05;23.14
70214;DHT22;60138;55.808;37.078;2023-05-10T09:20:51;17.77;20.04
70214;DHT22;60138;55.808;37.078;2023-05-10T09:23:17;17.78;25.12
70214;DHT22;60138;55.808;37.078;2023-05-10T09:25:43;17.88;20.72
70214;DHT22;60138;55.808;37.078;2023-05-10T09:28:09;17.87;19.11
70214;DHT22;60138;55.808;37.078;2023-05-10T09:30:35;17.94;20.73
70214;DHT22;60138;55.808;37.078;2023-05-10T09:33:01;17.89;19.34
70214;DHT22;60138;55.808;37.078;2023-05-10T09:35:30;18.08;23.20
70214;DHT22;60138;55.808;37.078;2023-05-10T09:37:59;18.19;19.53
70214;DHT22;60138;55.808;37.078;2023-05-10T09:40:27;18.35;23.29
70214;DHT22;60138;55.808;37.078;2023-05-10T09:43:04;18.68;23.90
70214;DHT22;60138;55.808;37.078;2023-05-10T09:45:32;19.00;25.26
70214;DHT22;60138;55.808;37.078;2023-05-10T09:47:59;19.01;21.98
70214;DHT22;60138;55.808;37.078;2023-05-10T09:50:26;19.21;22.95
70214;DHT22;60138;55.808;37.078;2023-05-10T09:53:02;19.39;24.17
70214;DHT22;60138;55.808;37.078;2023-05-10T09:55:42;19.67;24.28
70214;DHT22;60138;55.808;37.078;2023-05-10T09:58:08;19.82;22.75
70214;DHT22;60138;55.808;37.078;2023-05-10T10:00:40;19.85;20.21
70214;DHT22;60138;55.808;37.078;2023-05-10T10:03:12;19.69;16.78
70214;DHT22;60138;55.808;37.078;2023-05-10T10:05:40;19.32;19.39
70214;DHT22;60138;55.808;37.078;2023-05-10T10:08:06;19.16;20.89
70214;DHT22;60138;55.808;37.078;2023-05-10T10:10:33;19.30;22.36
70214;DHT22;60138;55.808;37.078;2023-05-10T10:12:59;19.56;23.56
70214;DHT22;60138;55.808;37.078;2023-05-10T10:15:25;19.68;23.43
70214;DHT22;60138;55.808;37.078;2023-05-10T10:17:52;19.90;23.54
70214;DHT22;60138;55.808;37.078;2023-05-10T10:20:19;20.01;23.60
70214;DHT22;60138;55.808;37.078;2023-05-10T10:22:45;19.94;24.69
70214;DHT22;60138;55.808;37.078;2023-05-10T10:25:12;19.91;23.01
70214;DHT22;60138;55.808;37.078;2023-05-10T10:30:45;19.75;19.55
70214;DHT22;60138;55.808;37.078;2023-05-10T10:35:59;19.59;24.07
70214;DHT22;60138;55.808;37.078;2023-05-10T10:38:25;19.70;23.54
70214;DHT22;60138;55.808;37.078;2023-05-10T10:41:11;19.90;23.24
70214;DHT22;60138;55.808;37.078;2023-05-10T10:54:51;20.34;18.44
70214;DHT22;60138;55.808;37.078;2023-05-10T10:57:18;20.30;20.46
70214;DHT22;60138;55.808;37.078;2023-05-10T10:59:45;20.27;19.28
70214;DHT22;60138;55.808;37.078;2023-05-10T11:02:34;20.13;16.41
70214;DHT22;60138;55.808;37.078;2023-05-10T11:05:08;20.20;21.01
70214;DHT22;60138;55.808;37.078;2023-05-10T11:07:57;20.28;21.72
70214;DHT22;60138;55.808;37.078;2023-05-10T11:10:24;20.31;21.93
70214;DHT22;60138;55.808;37.078;2023-05-10T11:13:51;20.42;22.38
70214;DHT22;60138;55.808;37.078;2023-05-10T11:15:48;20.42;22.56
70214;DHT22;60138;55.808;37.078;2023-05-10T11:18:24;20.34;22.33
70214;DHT22;60138;55.808;37.078;2023-05-10T11:20:51;20.25;22.70
70214;DHT22;60138;55.808;37.078;2023-05-10T11:23:17;20.14;22.70
70214;DHT22;60138;55.808;37.078;2023-05-10T11:25:44;20.02;22.92
70214;DHT22;60138;55.808;37.078;2023-05-10T11:28:14;19.89;19.40
70214;DHT22;60138;55.808;37.078;2023-05-10T11:30:41;19.58;19.12
70214;DHT22;60138;55.808;37.078;2023-05-10T11:33:07;19.39;22.28
70214;DHT22;60138;55.808;37.078;2023-05-10T11:35:40;19.17;20.45
70214;DHT22;60138;55.808;37.078;2023-05-10T11:38:10;19.06;20.05
70214;DHT22;60138;55.808;37.078;2023-05-10T11:40:37;19.12;18.41
70214;DHT22;60138;55.808;37.078;2023-05-10T11:43:04;19.18;18.74
70214;DHT22;60138;55.808;37.078;2023-05-10T11:45:32;19.11;21.15
70214;DHT22;60138;55.808;37.078;2023-05-10T11:47:58;19.02;19.99
70214;DHT22;60138;55.808;37.078;2023-05-10T11:50:24;18.97;23.92
70214;DHT22;60138;55.808;37.078;2023-05-10T11:52:54;19.05;21.19
70214;DHT22;60138;55.808;37.078;2023-05-10T11:55:20;19.13;21.46
70214;DHT22;60138;55.808;37.078;2023-05-10T11:57:45;19.27;21.33
70214;DHT22;60138;55.808;37.078;2023-05-10T12:00:12;19.31;22.08
70214;DHT22;60138;55.808;37.078;2023-05-10T12:02:38;19.28;19.89
70214;DHT22;60138;55.808;37.078;2023-05-10T12:05:05;19.26;22.92
70214;DHT22;60138;55.808;37.078;2023-05-10T12:07:31;19.45;21.57
70214;DHT22;60138;55.808;37.078;2023-05-10T12:10:08;19.84;20.85
70214;DHT22;60138;55.808;37.078;2023-05-10T12:12:45;20.02;19.80
70214;DHT22;60138;55.808;37.078;2023-05-10T12:15:12;19.97;21.11
70214;DHT22;60138;55.808;37.078;2023-05-10T12:17:43;20.01;18.75
70214;DHT22;60138;55.808;37.078;2023-05-10T12:20:19;19.95;21.11
70214;DHT22;60138;55.808;37.078;2023-05-10T12:22:47;19.98;19.13
70214;DHT22;60138;55.808;37.078;2023-05-10T12:25:14;19.83;20.50
70214;DHT22;60138;55.808;37.078;2023-05-10T12:27:41;19.85;21.70
70214;DHT22;60138;55.808;37.078;2023-05-10T12:30:07;20.02;22.25
70214;DHT22;60138;55.808;37.078;2023-05-10T12:32:43;20.06;21.13
70214;DHT22;60138;55.808;37.078;2023-05-10T12:35:09;19.84;19.06
70214;DHT22;60138;55.808;37.078;2023-05-10T12:37:35;19.67;19.34
70214;DHT22;60138;55.808;37.078;2023-05-10T12:40:01;19.50;19.36
70214;DHT22;60138;55.808;37.078;2023-05-10T12:42:30;19.50;20.86
70214;DHT22;60138;55.808;37.078;2023-05-10T12:44:56;19.65;20.86
70214;DHT22;60138;55.808;37.078;2023-05-10T12:47:22;19.74;21.05
70214;DHT22;60138;55.808;37.078;2023-05-10T12:49:47;20.00;21.66
70214;DHT22;60138;55.808;37.078;2023-05-10T12:52:13;20.18;21.56
70214;DHT22;60138;55.808;37.078;2023-05-10T12:54:39;20.32;21.14
70214;DHT22;60138;55.808;37.078;2023-05-10T12:57:04;20.35;19.79
70214;DHT22;60138;55.808;37.078;2023-05-10T12:59:30;20.27;18.40
70214;DHT22;60138;55.808;37.078;2023-05-10T13:01:57;19.99;17.70
70214;DHT22;60138;55.808;37.078;2023-05-10T13:04:23;19.94;21.33
70214;DHT22;60138;55.808;37.078;2023-05-10T13:06:49;20.20;21.95
70214;DHT22;60138;55.808;37.078;2023-05-10T13:09:14;20.66;22.48
70214;DHT22;60138;55.808;37.078;2023-05-10T13:11:40;21.18;21.81
70214;DHT22;60138;55.808;37.078;2023-05-10T13:14:05;21.52;20.51
70214;DHT22;60138;55.808;37.078;2023-05-10T13:16:31;21.51;20.47
70214;DHT22;60138;55.808;37.078;2023-05-10T13:18:57;21.24;20.24
70214;DHT22;60138;55.808;37.078;2023-05-10T13:21:23;21.14;19.37
70214;DHT22;60138;55.808;37.078;2023-05-10T13:23:49;21.02;17.03
70214;DHT22;60138;55.808;37.078;2023-05-10T13:26:14;21.73;18.07
70214;DHT22;60138;55.808;37.078;2023-05-10T13:28:40;21.38;18.20
70214;DHT22;60138;55.808;37.078;2023-05-10T13:31:05;21.21;20.22
70214;DHT22;60138;55.808;37.078;2023-05-10T13:33:31;21.28;20.97
70214;DHT22;60138;55.808;37.078;2023-05-10T13:35:57;21.51;20.50
70214;DHT22;60138;55.808;37.078;2023-05-10T13:38:22;21.53;18.57
70214;DHT22;60138;55.808;37.078;2023-05-10T13:40:48;21.42;17.22
70214;DHT22;60138;55.808;37.078;2023-05-10T13:43:13;21.39;20.37
70214;DHT22;60138;55.808;37.078;2023-05-10T13:45:39;21.38;19.44
70214;DHT22;60138;55.808;37.078;2023-05-10T13:48:05;21.38;17.06
70214;DHT22;60138;55.808;37.078;2023-05-10T13:50:31;21.43;17.28
70214;DHT22;60138;55.808;37.078;2023-05-10T13:52:56;21.47;18.18
70214;DHT22;60138;55.808;37.078;2023-05-10T13:55:22;21.37;17.06
70214;DHT22;60138;55.808;37.078;2023-05-10T13:57:48;21.46;18.64
70214;DHT22;60138;55.808;37.078;2023-05-10T14:00:14;21.39;18.03
70214;DHT22;60138;55.808;37.078;2023-05-10T14:02:40;21.72;20.35
70214;DHT22;60138;55.808;37.078;2023-05-10T14:05:06;21.97;16.98
70214;DHT22;60138;55.808;37.078;2023-05-10T14:07:31;21.76;19.48
70214;DHT22;60138;55.808;37.078;2023-05-10T14:09:57;21.34;18.25
70214;DHT22;60138;55.808;37.078;2023-05-10T14:12:23;21.11;19.95
70214;DHT22;60138;55.808;37.078;2023-05-10T14:14:48;20.96;19.89
70214;DHT22;60138;55.808;37.078;2023-05-10T14:17:14;20.74;20.74
70214;DHT22;60138;55.808;37.078;2023-05-10T14:19:40;20.44;19.67
70214;DHT22;60138;55.808;37.078;2023-05-10T14:22:05;20.24;20.92
70214;DHT22;60138;55.808;37.078;2023-05-10T14:24:31;20.09;21.24
70214;DHT22;60138;55.808;37.078;2023-05-10T14:26:57;20.07;21.56
70214;DHT22;60138;55.808;37.078;2023-05-10T14:29:22;20.11;21.55
70214;DHT22;60138;55.808;37.078;2023-05-10T14:31:48;20.13;22.11
70214;DHT22;60138;55.808;37.078;2023-05-10T14:34:14;20.11;21.47
70214;DHT22;60138;55.808;37.078;2023-05-10T14:36:40;20.05;20.48
70214;DHT22;60138;55.808;37.078;2023-05-10T14:39:05;19.92;22.25
70214;DHT22;60138;55.808;37.078;2023-05-10T14:41:31;19.83;22.02
70214;DHT22;60138;55.808;37.078;2023-05-10T14:43:57;19.79;22.56
70214;DHT22;60138;55.808;37.078;2023-05-10T14:46:22;19.76;22.76
70214;DHT22;60138;55.808;37.078;2023-05-10T14:48:48;19.69;21.89
70214;DHT22;60138;55.808;37.078;2023-05-10T14:51:14;19.59;22.88
70214;DHT22;60138;55.808;37.078;2023-05-10T14:53:39;19.58;22.81
70214;DHT22;60138;55.808;37.078;2023-05-10T14:56:05;19.53;20.79
70214;DHT22;60138;55.808;37.078;2023-05-10T14:58:31;19.36;21.58
70214;DHT22;60138;55.808;37.078;2023-05-10T15:00:57;19.20;21.96
70214;DHT22;60138;55.808;37.078;2023-05-10T15:03:22;19.17;21.75
70214;DHT22;60138;55.808;37.078;2023-05-10T15:05:48;19.09;22.24
70214;DHT22;60138;55.808;37.078;2023-05-10T15:08:14;18.99;20.02
70214;DHT22;60138;55.808;37.078;2023-05-10T15:10:39;18.89;21.94
70214;DHT22;60138;55.808;37.078;2023-05-10T15:13:05;18.86;22.24
70214;DHT22;60138;55.808;37.078;2023-05-10T15:15:31;18.87;22.02
70214;DHT22;60138;55.808;37.078;2023-05-10T15:17:56;18.83;23.06
70214;DHT22;60138;55.808;37.078;2023-05-10T15:20:22;18.83;22.95
70214;DHT22;60138;55.808;37.078;2023-05-10T15:22:48;18.77;23.20
70214;DHT22;60138;55.808;37.078;2023-05-10T15:25:14;18.67;22.02
70214;DHT22;60138;55.808;37.078;2023-05-10T15:27:39;18.57;23.53
70214;DHT22;60138;55.808;37.078;2023-05-10T15:30:06;18.51;23.49
70214;DHT22;60138;55.808;37.078;2023-05-10T15:32:32;18.56;23.75
70214;DHT22;60138;55.808;37.078;2023-05-10T15:34:58;18.58;23.66
70214;DHT22;60138;55.808;37.078;2023-05-10T15:37:24;18.57;23.39
70214;DHT22;60138;55.808;37.078;2023-05-10T15:39:50;18.52;23.54
70214;DHT22;60138;55.808;37.078;2023-05-10T15:42:15;18.47;22.65
70214;DHT22;60138;55.808;37.078;2023-05-10T15:44:41;18.41;22.37
70214;DHT22;60138;55.808;37.078;2023-05-10T15:47:07;18.34;23.32
70214;DHT22;60138;55.808;37.078;2023-05-10T15:49:32;18.27;23.58
70214;DHT22;60138;55.808;37.078;2023-05-10T15:51:58;18.20;23.78
70214;DHT22;60138;55.808;37.078;2023-05-10T15:54:24;18.15;23.93